Time;durP1;ratioP1;P1;durP2;ratioP2;P2;SDS_P1;SDS_P2;PMS_P1;PMS_P2;Temp;Humidity;BMP_temperature;BMP_pressure;BME280_temperature;BME280_humidity;BME280_pressure;Samples;Min_cycle;Max_cycle;Signal;HPM_P1;HPM_P2
2023/03/11 00:04:39;;;;;;;0.40;0.38;;;;;;;2.27;99.38;97435.13;10585703;28;20048;-72
2023/03/11 00:09:41;;;;;;;0.65;0.60;;;;;;;2.09;100.00;97437.63;10585091;28;20040;-73
2023/03/11 00:14:43;;;;;;;0.50;0.50;;;;;;;1.97;100.00;97457.06;10585512;28;20042;-72
2023/03/11 00:19:45;;;;;;;0.65;0.60;;;;;;;1.93;100.00;97448.56;10585042;28;20047;-72
2023/03/11 00:24:46;;;;;;;1.02;0.68;;;;;;;1.77;100.00;97468.16;10583893;28;20049;-71
2023/03/11 00:29:48;;;;;;;0.60;0.60;;;;;;;1.65;100.00;97473.81;10583783;28;20062;-73
2023/03/11 00:34:50;;;;;;;0.98;0.68;;;;;;;1.45;100.00;97483.16;10583619;28;20067;-71
2023/03/11 00:39:52;;;;;;;0.60;0.60;;;;;;;1.36;100.00;97493.00;10583884;28;20062;-72
2023/03/11 00:44:54;;;;;;;0.70;0.70;;;;;;;1.32;100.00;97497.41;10571484;28;20051;-72
2023/03/11 00:49:55;;;;;;;0.80;0.80;;;;;;;1.23;100.00;97529.63;10573512;28;20048;-72
2023/03/11 00:54:58;;;;;;;0.88;0.82;;;;;;;1.17;100.00;97536.78;10592280;28;20032;-73
2023/03/11 01:00:00;;;;;;;0.90;0.90;;;;;;;1.20;100.00;97545.28;10573131;28;20040;-72
2023/03/11 01:05:04;;;;;;;0.93;0.80;;;;;;;1.18;100.00;97559.16;10573027;28;20130;-73
2023/03/11 01:10:07;;;;;;;0.90;0.80;;;;;;;1.20;100.00;97573.75;10591837;28;20046;-72
2023/03/11 01:15:21;;;;;;;0.98;0.90;;;;;;;1.21;100.00;97587.53;10590902;28;20047;-73
2023/03/11 01:20:23;;;;;;;0.80;0.80;;;;;;;1.19;100.00;97578.97;10574259;28;20138;-71
2023/03/11 01:25:25;;;;;;;0.50;0.50;;;;;;;1.16;100.00;97610.97;10572821;28;20079;-72
2023/03/11 01:30:28;;;;;;;0.55;0.55;;;;;;;1.10;100.00;97621.50;10590341;28;20032;-72
2023/03/11 01:35:31;;;;;;;0.70;0.70;;;;;;;1.13;100.00;97629.19;10589968;28;20044;-73
2023/03/11 01:40:38;;;;;;;0.50;0.50;;;;;;;1.10;100.00;97638.78;10571840;28;20078;-72
2023/03/11 01:45:49;;;;;;;0.60;0.60;;;;;;;1.12;100.00;97658.53;10590250;28;20048;-72
2023/03/11 01:50:56;;;;;;;0.77;0.77;;;;;;;1.05;100.00;97674.31;10570666;28;20043;-72
2023/03/11 01:55:58;;;;;;;0.80;0.80;;;;;;;0.99;100.00;97655.50;10588181;28;20123;-72
2023/03/11 02:01:01;;;;;;;0.77;0.77;;;;;;;1.00;100.00;97688.22;10570516;28;20058;-73
2023/03/11 02:06:08;;;;;;;1.30;0.75;;;;;;;1.05;100.00;97703.59;10587759;28;20044;-72
2023/03/11 02:11:16;;;;;;;1.35;1.25;;;;;;;1.05;100.00;97684.66;10569399;28;20393;-72
2023/03/11 02:16:19;;;;;;;1.73;1.63;;;;;;;0.93;100.00;97711.72;10587884;28;20119;-71
2023/03/11 02:21:26;;;;;;;1.30;1.20;;;;;;;0.90;100.00;97733.38;10586146;28;20047;-72
2023/03/11 02:26:40;;;;;;;1.30;1.20;;;;;;;0.96;100.00;97738.34;10569073;28;20036;-73
2023/03/11 02:31:42;;;;;;;1.45;1.35;;;;;;;0.95;100.00;97756.53;10568472;28;20143;-72
2023/03/11 02:36:46;;;;;;;1.48;1.30;;;;;;;0.81;100.00;97764.69;10568550;28;20035;-75
2023/03/11 02:41:49;;;;;;;2.38;1.50;;;;;;;0.88;100.00;97776.53;10568211;28;20063;-72
2023/03/11 02:46:52;;;;;;;1.50;1.40;;;;;;;0.91;100.00;97785.94;10586700;28;20113;-72
2023/03/11 02:51:55;;;;;;;1.42;1.33;;;;;;;0.81;100.00;97797.47;10568586;28;20046;-72
2023/03/11 02:56:57;;;;;;;1.05;1.05;;;;;;;0.73;100.00;97832.13;10567879;28;20048;-72
2023/03/11 03:02:01;;;;;;;1.30;1.20;;;;;;;0.62;100.00;97841.06;10585806;28;20062;-73
2023/03/11 03:07:04;;;;;;;1.33;1.23;;;;;;;0.52;100.00;97865.47;10567237;28;20074;-73
2023/03/11 03:12:06;;;;;;;1.40;1.30;;;;;;;0.46;100.00;97866.47;10586184;28;20052;-72
2023/03/11 03:17:09;;;;;;;1.30;1.20;;;;;;;0.45;100.00;97890.63;10566641;28;20047;-71
2023/03/11 03:22:13;;;;;;;1.50;1.40;;;;;;;0.38;100.00;97905.44;10566476;28;20536;-73
2023/03/11 03:27:15;;;;;;;1.73;1.58;;;;;;;0.28;100.00;97921.22;10612328;22;20043;-74
2023/03/11 03:32:17;;;;;;;2.17;2.00;;;;;;;0.15;100.00;97944.75;10607168;27;20092;-74
2023/03/11 03:37:19;;;;;;;3.97;3.65;;;;;;;-0.03;100.00;97958.94;10608082;27;20092;-75
2023/03/11 03:42:24;;;;;;;4.90;4.03;;;;;;;0.01;100.00;97976.97;10607761;27;20039;-75
2023/03/11 03:47:26;;;;;;;4.07;3.78;;;;;;;0.05;100.00;97991.53;10609902;27;20130;-75
2023/03/11 03:52:28;;;;;;;4.55;4.25;;;;;;;0.05;100.00;98019.94;10607312;27;20049;-75
2023/03/11 03:57:30;;;;;;;5.50;5.10;;;;;;;0.03;100.00;98047.50;10610048;27;20467;-75
2023/03/11 04:02:31;;;;;;;5.28;4.88;;;;;;;0.04;100.00;98054.38;10610673;27;20219;-75
2023/03/11 04:07:35;;;;;;;6.13;5.72;;;;;;;-0.05;100.00;98074.34;10613064;27;20158;-75
2023/03/11 04:12:39;;;;;;;5.75;5.35;;;;;;;-0.04;100.00;98094.16;10613269;27;20134;-75
2023/03/11 04:17:42;;;;;;;6.22;5.82;;;;;;;-0.08;100.00;98097.66;10613045;27;20151;-76
2023/03/11 04:22:43;;;;;;;7.35;6.85;;;;;;;-0.10;100.00;98102.00;10613180;28;20077;-75
2023/03/11 04:27:48;;;;;;;7.75;7.25;;;;;;;-0.08;100.00;98122.66;10617848;28;20061;-75
2023/03/11 04:32:51;;;;;;;7.40;6.90;;;;;;;-0.11;100.00;98133.88;10609996;28;20043;-77
2023/03/11 04:37:53;;;;;;;8.13;7.53;;;;;;;-0.12;100.00;98139.94;10606368;28;20040;-77
2023/03/11 04:42:57;;;;;;;8.07;7.47;;;;;;;-0.07;100.00;98143.25;10607118;28;20059;-77
2023/03/11 04:47:59;;;;;;;7.50;7.00;;;;;;;-0.05;100.00;98171.63;10608646;28;20045;-78
2023/03/11 04:53:01;;;;;;;8.23;7.53;;;;;;;-0.05;100.00;98169.06;10606013;28;20130;-77
2023/03/11 04:58:03;;;;;;;7.93;7.05;;;;;;;-0.09;100.00;98191.53;10624269;28;20445;-76
2023/03/11 05:03:07;;;;;;;6.07;5.68;;;;;;;0.01;100.00;98215.44;10607640;28;20070;-76
2023/03/11 05:08:12;;;;;;;6.90;6.43;;;;;;;0.01;100.00;98217.19;10605446;28;20043;-76
2023/03/11 05:13:14;;;;;;;6.85;6.35;;;;;;;0.02;100.00;98244.72;10607554;28;20054;-76
2023/03/11 05:18:16;;;;;;;6.93;6.07;;;;;;;0.01;100.00;98271.44;10623975;28;20038;-76
2023/03/11 05:23:18;;;;;;;5.85;5.35;;;;;;;0.08;100.00;98268.69;10606385;28;20411;-76
2023/03/11 05:28:21;;;;;;;6.07;5.68;;;;;;;0.07;100.00;98276.47;10597609;27;20137;-75
2023/03/11 05:33:31;;;;;;;6.22;5.72;;;;;;;0.04;100.00;98292.88;10615090;27;20391;-75
2023/03/11 05:38:34;;;;;;;6.28;5.88;;;;;;;0.05;100.00;98299.75;10612248;27;20469;-75
2023/03/11 05:43:36;;;;;;;6.20;5.80;;;;;;;0.12;100.00;98332.34;10611772;27;20040;-75
2023/03/11 05:48:38;;;;;;;6.65;6.15;;;;;;;0.12;100.00;98334.94;10630402;27;20035;-75
2023/03/11 05:53:47;;;;;;;6.47;5.97;;;;;;;0.15;100.00;98341.78;10613970;27;20086;-75
2023/03/11 05:58:57;;;;;;;7.35;6.75;;;;;;;0.18;100.00;98354.66;10611874;27;20134;-75
2023/03/11 06:04:01;;;;;;;8.35;7.75;;;;;;;0.12;100.00;98363.34;10612061;27;20047;-75
2023/03/11 06:09:03;;;;;;;7.95;7.20;;;;;;;0.12;100.00;98360.75;10611140;27;20043;-75
2023/03/11 06:14:05;;;;;;;9.90;9.02;;;;;;;0.08;100.00;98384.09;10594364;27;20564;-74
2023/03/11 06:19:08;;;;;;;9.95;9.25;;;;;;;0.18;100.00;98388.25;10612502;27;20065;-76
2023/03/11 06:24:14;;;;;;;10.18;9.38;;;;;;;0.13;100.00;98419.31;10610712;27;20048;-74
2023/03/11 06:29:17;;;;;;;10.13;9.32;;;;;;;0.16;100.00;98436.50;10594317;27;20126;-74
2023/03/11 06:34:22;;;;;;;11.75;10.95;;;;;;;0.26;100.00;98458.72;10610475;27;20043;-74
2023/03/11 06:39:25;;;;;;;10.15;9.45;;;;;;;0.29;100.00;98461.28;10612384;27;20492;-73
2023/03/11 06:44:28;;;;;;;12.73;11.82;;;;;;;0.28;100.00;98471.66;10609854;27;20488;-74
2023/03/11 06:49:30;;;;;;;12.50;11.50;;;;;;;0.22;100.00;98488.97;10610406;27;20115;-74
2023/03/11 06:54:32;;;;;;;11.80;10.95;;;;;;;0.11;100.00;98490.84;10627955;27;20050;-73
2023/03/11 06:59:35;;;;;;;13.18;12.18;;;;;;;0.13;100.00;98508.88;10614429;27;20047;-75
2023/03/11 07:04:40;;;;;;;11.77;10.88;;;;;;;0.22;99.94;98511.34;10610950;27;20468;-73
2023/03/11 07:09:42;;;;;;;12.27;11.38;;;;;;;0.17;100.00;98541.56;10609511;27;20566;-72
2023/03/11 07:14:50;;;;;;;12.70;11.77;;;;;;;0.15;100.00;98561.41;10593030;27;20078;-75
2023/03/11 07:19:52;;;;;;;13.82;12.82;;;;;;;0.09;100.00;98572.69;10610723;27;20035;-74
2023/03/11 07:24:56;;;;;;;12.68;11.77;;;;;;;0.17;100.00;98588.91;10627338;27;20076;-74
2023/03/11 07:30:01;;;;;;;11.82;10.90;;;;;;;0.11;100.00;98596.75;10626393;27;20127;-72
2023/03/11 07:35:02;;;;;;;13.57;12.45;;;;;;;0.19;100.00;98604.44;10626308;27;20051;-72
2023/03/11 07:40:05;;;;;;;11.38;10.48;;;;;;;0.14;100.00;98632.06;10608889;27;20377;-72
2023/03/11 07:45:07;;;;;;;12.82;11.90;;;;;;;0.07;100.00;98631.25;10628457;27;20484;-72
2023/03/11 07:50:10;;;;;;;12.60;11.63;;;;;;;0.10;100.00;98641.56;10625723;27;20039;-72
2023/03/11 07:55:12;;;;;;;12.65;11.70;;;;;;;0.13;100.00;98661.34;10606577;27;20039;-72
2023/03/11 08:00:14;;;;;;;12.00;11.10;;;;;;;0.21;99.10;98662.09;10625408;27;20058;-72
2023/03/11 08:05:17;;;;;;;13.35;12.32;;;;;;;0.19;99.32;98671.63;10609031;27;20043;-72
2023/03/11 08:10:19;;;;;;;13.45;12.00;;;;;;;0.27;99.36;98687.88;10606257;27;20428;-72
2023/03/11 08:15:20;;;;;;;12.85;11.85;;;;;;;0.44;97.99;98704.06;10625832;28;20047;-72
2023/03/11 08:20:22;;;;;;;14.73;13.48;;;;;;;0.47;98.38;98711.75;10625243;28;20039;-72
2023/03/11 08:25:25;;;;;;;119.93;49.42;;;;;;;0.61;98.49;98721.91;10627778;28;20051;-73
2023/03/11 08:30:26;;;;;;;29.45;26.35;;;;;;;0.49;98.35;98735.88;10625152;28;20059;-72
2023/03/11 08:35:28;;;;;;;22.40;20.48;;;;;;;0.53;98.21;98746.16;10625497;28;20050;-75
2023/03/11 08:40:30;;;;;;;21.13;19.30;;;;;;;0.64;100.00;98754.66;10624986;28;20059;-74
2023/03/11 08:45:32;;;;;;;14.50;13.50;;;;;;;0.63;99.21;98764.13;10606704;28;20047;-73
2023/03/11 08:50:34;;;;;;;16.30;14.70;;;;;;;0.73;98.19;98770.91;10626893;28;20043;-73
2023/03/11 08:55:53;;;;;;;16.25;15.02;;;;;;;0.77;96.53;98774.31;10625101;28;20440;-74
2023/03/11 09:00:56;;;;;;;13.07;11.98;;;;;;;0.69;98.73;98789.91;10625692;28;20047;-74
2023/03/11 09:06:00;;;;;;;12.63;11.73;;;;;;;0.79;100.00;98807.91;10631117;27;20054;-74
2023/03/11 09:11:02;;;;;;;15.63;14.50;;;;;;;0.82;98.63;98815.66;10632210;27;20035;-74
2023/03/11 09:16:04;;;;;;;13.68;12.57;;;;;;;0.80;97.61;98818.25;10616372;27;20146;-73
2023/03/11 09:21:07;;;;;;;13.85;12.95;;;;;;;0.54;100.00;98836.66;10632550;27;20114;-74
2023/03/11 09:26:08;;;;;;;15.18;14.07;;;;;;;0.49;100.00;98835.84;10618541;22;20130;-69
2023/03/11 09:31:10;;;;;;;16.13;14.73;;;;;;;0.41;100.00;98840.25;10588979;28;20085;-69
2023/03/11 09:36:14;;;;;;;16.45;15.13;;;;;;;0.48;100.00;98859.97;10588954;27;20071;-71
2023/03/11 09:41:16;;;;;;;13.75;12.63;;;;;;;0.50;100.00;98863.41;10606284;27;20039;-70
2023/03/11 09:46:48;;;;;;;11.77;10.88;;;;;;;0.63;100.00;98877.94;10616643;27;20039;-70
2023/03/11 09:52:02;;;;;;;12.52;11.60;;;;;;;0.72;100.00;98875.25;10574487;27;20070;-70
2023/03/11 09:57:08;;;;;;;12.77;11.63;;;;;;;0.73;99.95;98889.03;10629092;27;20043;-69
2023/03/11 10:02:17;;;;;;;10.02;9.32;;;;;;;0.94;97.73;98896.56;10600929;27;20051;-70
2023/03/11 10:07:24;;;;;;;12.35;11.35;;;;;;;0.85;99.84;98903.56;10569639;27;20113;-69
2023/03/11 10:12:42;;;;;;;11.77;10.77;;;;;;;0.87;100.00;98899.22;10629882;27;20408;-70
2023/03/11 10:17:43;;;;;;;12.07;11.02;;;;;;;0.81;98.52;98917.41;10629366;27;20031;-69
2023/03/11 10:22:58;;;;;;;11.07;10.27;;;;;;;0.91;98.41;98925.03;10629938;27;20043;-70
2023/03/11 10:28:11;;;;;;;12.30;10.80;;;;;;;1.15;98.14;98918.75;10597559;27;20061;-70
2023/03/11 10:33:23;;;;;;;12.05;11.15;;;;;;;1.46;97.85;98926.13;10586841;28;20048;-70
2023/03/11 10:38:34;;;;;;;11.75;10.85;;;;;;;1.36;97.51;98938.34;10568262;28;20443;-70
2023/03/11 10:43:44;;;;;;;11.13;10.32;;;;;;;1.49;95.58;98947.66;10585954;28;20046;-70
2023/03/11 10:48:46;;;;;;;10.98;10.07;;;;;;;1.73;93.83;98968.97;10586675;28;20047;-70
2023/03/11 10:53:59;;;;;;;10.25;9.45;;;;;;;1.70;92.04;98969.00;10585341;28;20194;-71
2023/03/11 10:59:04;;;;;;;9.70;9.00;;;;;;;1.52;89.92;98976.13;10567837;28;20138;-70
2023/03/11 11:04:26;;;;;;;8.82;8.13;;;;;;;1.48;91.74;98969.25;10586261;28;20057;-69
2023/03/11 11:09:29;;;;;;;12.32;11.32;;;;;;;1.13;95.77;98981.75;10585559;28;20050;-70
2023/03/11 11:14:46;;;;;;;10.05;9.25;;;;;;;1.28;95.15;98986.75;10584889;28;20441;-69
2023/03/11 11:19:50;;;;;;;9.60;8.90;;;;;;;1.19;97.04;98995.47;10584520;28;20039;-70
2023/03/11 11:24:55;;;;;;;9.82;8.85;;;;;;;1.23;95.02;98997.16;10584163;28;20496;-70
2023/03/11 11:30:02;;;;;;;8.25;7.55;;;;;;;1.22;94.15;99002.38;10583944;28;20040;-69
2023/03/11 11:35:13;;;;;;;8.27;7.68;;;;;;;1.23;94.47;98993.72;10584090;28;20093;-70
2023/03/11 11:40:15;;;;;;;8.43;7.78;;;;;;;1.60;91.66;98999.34;10588239;27;20036;-70
2023/03/11 11:45:36;;;;;;;7.50;6.68;;;;;;;1.64;88.29;99005.31;10601228;27;20047;-70
2023/03/11 11:50:50;;;;;;;8.95;8.15;;;;;;;1.48;89.49;98994.31;10531453;28;20079;-69
2023/03/11 11:55:53;;;;;;;8.73;8.02;;;;;;;1.68;91.00;99012.19;10560628;27;20062;-69
2023/03/11 12:01:18;;;;;;;15.05;7.20;;;;;;;2.41;88.21;99007.75;10606923;27;20477;-69
2023/03/11 12:06:44;;;;;;;7.22;6.63;;;;;;;2.33;83.75;99013.03;10596733;27;20047;-70
2023/03/11 12:11:50;;;;;;;7.80;7.00;;;;;;;2.57;78.52;99006.63;10588792;27;20039;-70
2023/03/11 12:17:00;;;;;;;6.53;5.93;;;;;;;2.17;77.48;99003.75;10627352;27;20047;-69
2023/03/11 12:22:16;;;;;;;6.28;5.20;;;;;;;1.98;78.54;99014.38;10626887;27;20031;-70
2023/03/11 12:27:26;;;;;;;6.05;5.55;;;;;;;1.99;78.39;99021.31;10625819;28;20035;-69
2023/03/11 12:32:37;;;;;;;5.43;5.00;;;;;;;1.77;76.71;99010.34;10591056;28;20400;-70
2023/03/11 12:37:39;;;;;;;6.25;5.65;;;;;;;1.82;77.51;99019.81;10584315;28;20040;-69
2023/03/11 12:42:41;;;;;;;5.55;5.05;;;;;;;1.86;77.41;99022.34;10573392;28;20059;-70
2023/03/11 12:47:42;;;;;;;5.47;4.97;;;;;;;1.60;77.92;99034.75;10591314;28;20051;-70
2023/03/11 12:52:53;;;;;;;4.63;4.22;;;;;;;1.39;78.12;99035.84;10590218;28;20542;-69
2023/03/11 12:58:27;;;;;;;5.68;5.18;;;;;;;1.30;80.08;99036.78;10590529;28;20119;-69
2023/03/11 13:03:50;;;;;;;5.80;5.30;;;;;;;1.14;83.14;99046.44;10597758;27;20039;-69
2023/03/11 13:08:56;;;;;;;7.13;6.43;;;;;;;1.10;87.48;99060.28;10631501;27;20039;-69
2023/03/11 13:14:27;;;;;;;8.32;7.53;;;;;;;1.04;93.02;99056.91;10632503;27;20049;-69
2023/03/11 13:19:28;;;;;;;8.90;8.10;;;;;;;0.98;93.43;99069.03;10614632;27;20395;-70
2023/03/11 13:24:30;;;;;;;7.57;6.95;;;;;;;1.07;89.64;99083.63;10632233;27;20049;-70
2023/03/11 13:29:45;;;;;;;4.38;4.03;;;;;;;0.93;85.42;99088.91;10609807;27;20126;-70
2023/03/11 13:35:05;;;;;;;7.47;6.78;;;;;;;0.98;88.11;99084.56;10534989;28;20438;-70
2023/03/11 13:40:33;;;;;;;6.45;5.85;;;;;;;1.19;85.85;99085.22;10588366;28;20100;-69
2023/03/11 13:45:37;;;;;;;6.45;5.85;;;;;;;1.44;86.34;99091.88;10591839;27;20043;-70
2023/03/11 13:50:46;;;;;;;5.53;5.03;;;;;;;1.73;84.49;99093.31;10629172;27;20035;-69
2023/03/11 13:55:49;;;;;;;5.75;5.10;;;;;;;1.91;81.28;99111.25;10630667;27;20035;-71
2023/03/11 14:00:56;;;;;;;4.78;4.47;;;;;;;1.98;79.33;99109.44;10604706;27;20450;-71
2023/03/11 14:06:02;;;;;;;5.68;5.18;;;;;;;1.81;80.00;99111.34;10587669;28;20035;-70
2023/03/11 14:11:07;;;;;;;4.28;3.47;;;;;;;1.80;75.15;99126.03;10568948;28;20051;-70
2023/03/11 14:16:14;;;;;;;5.40;4.70;;;;;;;1.62;78.58;99131.41;10587100;28;20062;-70
2023/03/11 14:21:21;;;;;;;5.70;5.13;;;;;;;1.72;80.90;99139.06;10587289;28;20664;-70
2023/03/11 14:26:28;;;;;;;6.17;5.27;;;;;;;1.78;80.06;99143.34;10587070;28;20377;-69
2023/03/11 14:31:32;;;;;;;5.03;4.63;;;;;;;1.83;79.71;99143.31;10587003;28;20040;-70
2023/03/11 14:36:51;;;;;;;5.07;4.57;;;;;;;2.09;78.73;99145.59;10608268;27;20146;-69
2023/03/11 14:41:58;;;;;;;5.05;4.55;;;;;;;2.05;76.93;99149.97;10629756;27;20059;-70
2023/03/11 14:47:07;;;;;;;5.18;4.43;;;;;;;1.98;75.21;99162.13;10593821;27;20092;-70
2023/03/11 14:52:29;;;;;;;5.93;5.50;;;;;;;1.85;78.77;99168.31;10629318;27;20035;-69
2023/03/11 14:57:42;;;;;;;4.78;4.38;;;;;;;1.74;77.71;99181.38;10629418;27;20047;-70
2023/03/11 15:02:53;;;;;;;5.15;4.65;;;;;;;1.85;76.14;99189.03;10628207;27;20114;-69
2023/03/11 15:08:01;;;;;;;4.93;4.47;;;;;;;1.79;75.68;99196.88;10628856;27;20070;-69
2023/03/11 15:13:06;;;;;;;5.28;4.78;;;;;;;1.78;76.02;99195.19;10628710;27;20447;-69
2023/03/11 15:18:21;;;;;;;5.00;4.43;;;;;;;1.93;74.88;99197.59;10593426;27;20050;-70
2023/03/11 15:23:23;;;;;;;5.13;4.53;;;;;;;1.81;76.37;99204.63;10610147;27;20047;-71
2023/03/11 15:28:31;;;;;;;4.15;3.85;;;;;;;1.73;74.38;99213.34;10627513;27;20045;-72
2023/03/11 15:33:33;;;;;;;4.75;4.32;;;;;;;2.09;72.80;99219.06;10628102;27;20043;-73
2023/03/11 15:38:35;;;;;;;4.75;4.35;;;;;;;2.06;73.28;99233.78;10627646;27;20087;-74
2023/03/11 15:43:47;;;;;;;4.80;4.30;;;;;;;1.97;74.05;99235.56;10609393;27;20086;-73
2023/03/11 15:48:48;;;;;;;5.20;4.20;;;;;;;2.05;70.47;99243.28;10626882;27;20425;-73
2023/03/11 15:53:50;;;;;;;4.50;4.10;;;;;;;1.89;70.93;99255.53;10627692;27;20085;-73
2023/03/11 15:58:52;;;;;;;5.28;4.88;;;;;;;1.72;76.67;99253.06;10627842;27;20059;-75
2023/03/11 16:03:55;;;;;;;4.70;4.22;;;;;;;1.91;72.67;99258.97;10628137;27;20047;-73
2023/03/11 16:08:57;;;;;;;4.72;4.32;;;;;;;1.81;75.64;99270.28;10628770;27;20174;-74
2023/03/11 16:13:59;;;;;;;7.53;4.80;;;;;;;1.87;75.87;99269.38;10607838;27;20039;-74
2023/03/11 16:19:01;;;;;;;4.93;4.53;;;;;;;1.76;77.62;99274.63;10627191;27;20412;-73
2023/03/11 16:24:04;;;;;;;5.43;4.70;;;;;;;1.70;74.92;99285.91;10607976;28;20049;-73
2023/03/11 16:29:06;;;;;;;4.82;4.35;;;;;;;1.63;75.66;99294.59;10626726;28;20046;-73
2023/03/11 16:34:20;;;;;;;4.32;3.88;;;;;;;1.74;73.11;99297.13;10626462;27;20039;-73
2023/03/11 16:39:21;;;;;;;5.25;4.75;;;;;;;1.61;74.88;99301.53;10608621;28;20039;-72
2023/03/11 16:44:23;;;;;;;7.32;6.40;;;;;;;1.43;78.13;99309.44;10628973;27;20043;-73
2023/03/11 16:49:25;;;;;;;4.57;4.18;;;;;;;1.45;74.95;99313.72;10626980;28;20042;-74
2023/03/11 16:54:27;;;;;;;5.47;4.78;;;;;;;1.33;77.05;99313.81;10609802;28;20057;-73
2023/03/11 16:59:29;;;;;;;5.85;4.72;;;;;;;1.40;76.38;99328.44;10608288;28;20415;-73
2023/03/11 17:04:32;;;;;;;5.57;5.07;;;;;;;1.33;77.95;99331.94;10625473;27;20126;-73
2023/03/11 17:09:34;;;;;;;5.57;5.07;;;;;;;1.33;77.02;99344.91;10609266;28;20036;-73
2023/03/11 17:14:39;;;;;;;6.15;5.60;;;;;;;1.19;78.59;99357.03;10628724;27;20043;-74
2023/03/11 17:19:41;;;;;;;5.65;5.15;;;;;;;1.20;78.22;99358.78;10610139;27;20039;-73
2023/03/11 17:24:43;;;;;;;6.60;6.00;;;;;;;1.10;78.95;99370.88;10629474;27;20060;-72
2023/03/11 17:29:45;;;;;;;5.53;5.03;;;;;;;0.91;80.04;99375.25;10617052;27;20050;-73
2023/03/11 17:34:47;;;;;;;6.72;6.18;;;;;;;0.89;80.10;99384.78;10634078;27;20058;-74
2023/03/11 17:39:49;;;;;;;6.18;5.68;;;;;;;0.73;80.43;99394.28;10633907;27;20039;-73
2023/03/11 17:45:00;;;;;;;5.80;5.32;;;;;;;0.74;80.37;99398.59;10600082;27;20047;-73
2023/03/11 17:50:04;;;;;;;5.57;5.18;;;;;;;0.82;78.80;99406.34;10614609;27;20058;-72
2023/03/11 17:55:06;;;;;;;6.25;5.63;;;;;;;0.62;79.71;99410.69;10615854;27;20456;-74
2023/03/11 18:00:13;;;;;;;6.53;5.32;;;;;;;0.73;78.45;99411.53;10614549;27;20059;-72
2023/03/11 18:05:15;;;;;;;6.55;5.97;;;;;;;0.49;79.70;99405.56;10613945;27;20500;-74
2023/03/11 18:10:20;;;;;;;7.85;7.13;;;;;;;0.42;80.64;99423.66;10632416;27;20095;-73
2023/03/11 18:15:23;;;;;;;6.38;5.70;;;;;;;0.38;80.31;99425.38;10631501;27;20047;-73
2023/03/11 18:20:25;;;;;;;8.40;7.65;;;;;;;0.01;83.91;99427.09;10631308;27;20036;-73
2023/03/11 18:25:27;;;;;;;6.38;5.88;;;;;;;0.32;81.33;99430.56;10630803;27;20047;-75
2023/03/11 18:30:29;;;;;;;7.13;6.20;;;;;;;0.15;82.07;99425.38;10612856;27;20039;-73
2023/03/11 18:35:31;;;;;;;7.50;6.60;;;;;;;0.16;81.65;99426.22;10631903;27;20092;-73
2023/03/11 18:40:33;;;;;;;6.65;6.03;;;;;;;0.42;80.40;99426.22;10633709;27;20100;-73
2023/03/11 18:45:38;;;;;;;12.30;9.48;;;;;;;0.12;82.13;99429.69;10631404;27;20103;-73
2023/03/11 18:50:40;;;;;;;7.40;5.18;;;;;;;0.29;81.30;99438.28;10631936;27;20404;-73
2023/03/11 18:55:42;;;;;;;7.20;5.15;;;;;;;0.17;81.31;99436.56;10572116;27;20059;-74
2023/03/11 19:00:44;;;;;;;5.45;4.95;;;;;;;0.16;80.92;99439.16;10558074;28;20156;-74
2023/03/11 19:05:48;;;;;;;6.72;6.03;;;;;;;0.15;80.53;99437.44;10553609;28;20050;-73
2023/03/11 19:10:52;;;;;;;5.18;4.35;;;;;;;-0.14;82.50;99440.84;10586268;28;20055;-73
2023/03/11 19:15:54;;;;;;;8.00;5.45;;;;;;;-0.18;82.64;99452.00;10568253;28;20070;-73
2023/03/11 19:21:01;;;;;;;9.05;6.65;;;;;;;-0.19;82.90;99458.03;10568540;28;20048;-72
2023/03/11 19:26:03;;;;;;;6.93;6.35;;;;;;;-0.45;84.71;99457.13;10586460;28;20039;-74
2023/03/11 19:31:05;;;;;;;8.38;7.60;;;;;;;-0.40;85.49;99465.72;10586413;28;20481;-74
2023/03/11 19:36:08;;;;;;;8.52;7.65;;;;;;;-0.57;86.15;99463.13;10567104;28;20047;-73
2023/03/11 19:41:13;;;;;;;8.27;7.50;;;;;;;-0.68;87.74;99478.53;10584629;28;20111;-73
2023/03/11 19:46:17;;;;;;;8.80;7.50;;;;;;;-0.60;86.71;99478.59;10585395;28;20090;-73
2023/03/11 19:51:19;;;;;;;7.53;6.80;;;;;;;-0.75;86.95;99481.97;10583433;28;20063;-73
2023/03/11 19:56:21;;;;;;;8.88;7.95;;;;;;;-0.74;86.61;99486.25;10584890;28;20047;-73
2023/03/11 20:01:27;;;;;;;7.53;6.88;;;;;;;-0.73;85.78;99479.38;10584325;28;20504;-73
2023/03/11 20:06:28;;;;;;;6.63;5.70;;;;;;;-0.50;83.28;99482.91;10565677;28;20043;-73
2023/03/11 20:11:30;;;;;;;8.25;5.80;;;;;;;-0.62;83.44;99478.59;10583233;28;20070;-73
2023/03/11 20:16:32;;;;;;;6.30;5.53;;;;;;;-0.77;84.07;99486.25;10583293;28;20047;-72
2023/03/11 20:21:38;;;;;;;6.00;5.40;;;;;;;-0.76;84.61;99487.97;10583328;28;20032;-72
2023/03/11 20:26:39;;;;;;;11.90;5.47;;;;;;;-0.80;85.00;99489.69;10584551;28;20052;-72
2023/03/11 20:31:43;;;;;;;6.40;5.03;;;;;;;-0.78;83.71;99490.53;10583500;28;20036;-72
2023/03/11 20:36:49;;;;;;;5.43;4.85;;;;;;;-0.94;84.87;99486.13;10584265;28;20050;-73
2023/03/11 20:41:51;;;;;;;5.80;5.07;;;;;;;-0.73;83.15;99494.88;10582945;28;20096;-73
2023/03/11 20:46:53;;;;;;;6.32;5.70;;;;;;;-0.74;83.22;99488.84;10583612;28;20043;-72
2023/03/11 20:51:55;;;;;;;5.95;5.07;;;;;;;-0.73;83.17;99487.13;10583283;28;20043;-73
2023/03/11 20:56:58;;;;;;;5.22;4.75;;;;;;;-0.84;83.76;99489.63;10566106;28;20048;-73
2023/03/11 21:02:00;;;;;;;8.38;4.65;;;;;;;-0.66;82.14;99486.31;10570679;28;20088;-73
2023/03/11 21:07:02;;;;;;;8.30;5.10;;;;;;;-0.54;81.06;99486.34;10591010;28;20621;-72
2023/03/11 21:12:04;;;;;;;7.82;5.30;;;;;;;-0.57;81.64;99496.69;10591690;28;20040;-73
2023/03/11 21:17:07;;;;;;;7.30;6.60;;;;;;;-0.64;82.37;99493.19;10574019;28;20055;-73
2023/03/11 21:22:10;;;;;;;7.15;6.47;;;;;;;-0.78;83.56;99490.53;10591062;28;20044;-73
2023/03/11 21:27:24;;;;;;;7.70;7.00;;;;;;;-0.78;84.37;99485.38;10586129;22;20124;-73
2023/03/11 21:32:27;;;;;;;9.57;7.32;;;;;;;-0.91;85.97;99482.72;10503960;28;20090;-72
2023/03/11 21:37:29;;;;;;;9.35;7.10;;;;;;;-1.05;86.59;99483.50;10506320;28;20127;-72
2023/03/11 21:42:31;;;;;;;9.43;7.47;;;;;;;-0.97;85.94;99490.41;10471005;28;20040;-72
2023/03/11 21:47:32;;;;;;;8.20;7.50;;;;;;;-1.04;85.83;99486.94;10486279;28;20501;-73
2023/03/11 21:52:34;;;;;;;8.48;7.68;;;;;;;-1.20;87.71;99483.41;10503352;28;20047;-72
2023/03/11 21:57:36;;;;;;;9.10;8.30;;;;;;;-1.19;87.74;99482.56;10485557;28;20048;-73
2023/03/11 22:02:38;;;;;;;9.10;8.35;;;;;;;-1.20;87.37;99474.81;10504084;28;20051;-73
2023/03/11 22:07:40;;;;;;;9.45;8.40;;;;;;;-1.15;86.89;99475.69;10504353;28;20052;-73
2023/03/11 22:12:42;;;;;;;7.60;6.90;;;;;;;-1.14;86.85;99493.78;10501489;28;20036;-73
2023/03/11 22:17:43;;;;;;;8.43;6.68;;;;;;;-1.01;85.89;99494.72;10502756;28;20070;-71
2023/03/11 22:22:45;;;;;;;6.70;6.10;;;;;;;-1.12;85.65;99484.31;10502706;28;20085;-72
2023/03/11 22:27:47;;;;;;;6.97;5.18;;;;;;;-1.17;85.67;99486.00;10486020;28;20494;-72
2023/03/11 22:32:49;;;;;;;6.28;5.70;;;;;;;-1.22;85.69;99497.16;10484428;28;20044;-72
2023/03/11 22:37:50;;;;;;;6.88;4.25;;;;;;;-1.03;83.14;99488.66;10503472;28;20048;-72
2023/03/11 22:42:52;;;;;;;6.40;3.58;;;;;;;-0.91;81.61;99500.78;10502350;28;20119;-72
2023/03/11 22:47:54;;;;;;;4.05;3.25;;;;;;;-0.83;79.95;99509.44;10504738;28;20051;-72
2023/03/11 22:52:56;;;;;;;6.15;3.30;;;;;;;-1.00;80.66;99508.47;10503061;28;20098;-72
2023/03/11 22:57:58;;;;;;;5.07;3.92;;;;;;;-0.96;79.54;99513.66;10483572;28;20044;-72
2023/03/11 23:02:59;;;;;;;3.65;2.63;;;;;;;-0.81;78.70;99515.47;10483111;28;20498;-72
2023/03/11 23:08:01;;;;;;;7.55;3.08;;;;;;;-0.84;77.70;99502.53;10502691;28;20047;-72
2023/03/11 23:13:03;;;;;;;4.18;2.28;;;;;;;-0.69;75.76;99505.22;10502042;28;20045;-72
2023/03/11 23:18:04;;;;;;;7.50;2.92;;;;;;;-0.85;77.20;99501.66;10501574;28;20075;-72
2023/03/11 23:23:08;;;;;;;4.65;2.38;;;;;;;-0.83;76.22;99501.69;10482206;28;20037;-72
2023/03/11 23:28:09;;;;;;;5.70;2.28;;;;;;;-0.76;75.73;99506.03;10483108;28;20131;-72
2023/03/11 23:33:11;;;;;;;4.82;2.78;;;;;;;-0.83;76.37;99507.72;10502196;28;20043;-71
2023/03/11 23:38:13;;;;;;;4.72;2.40;;;;;;;-0.79;75.76;99513.78;10500653;28;20439;-72